Centennial — WDB4024 — position and weather

sailwx.info

Track history (hours):
 
Tides and Currents Weather Stations Pressure Air Temp Water Temp Dewpoint Dewpoint Depression Visibility Wind Speed Wind Dir Waves Ship Positions

Centennial

Owner: University of Washington, Friday Harbor Labs, Friday Harbor, WA. More information available from US FCC via Universal Licensing System and Coast Guard Vessel Documentation Center.

Last reported at 2014-Oct-30 14:32 UTC. Time now 2014-Oct-30 14:37 UTC.
Position N 48°33' W 123°01'.

Length 20 m.

Type: Dredging. MMSI: 369277000.

Date/timePositionNaut miles runAvg speedWind from/ knotsBaromVisibWave heightAir tempDewpointWater temp
2014-Oct-30 14:32N 48°33' W 123°01'0 0.0
2014-Oct-30 13:32N 48°33' W 123°01'0 0.0
2014-Oct-30 12:32N 48°33' W 123°01'0 0.0
2014-Oct-30 11:32N 48°33' W 123°01'0 0.0
2014-Oct-30 10:29N 48°33' W 123°01'0 0.0
2014-Oct-30 09:23N 48°33' W 123°01'0 0.0
2014-Oct-30 08:32N 48°33' W 123°01'0 0.0
2014-Oct-30 07:32N 48°33' W 123°01'0 0.0
2014-Oct-30 06:29N 48°33' W 123°01'0 0.0
2014-Oct-30 05:29N 48°33' W 123°01'0 0.0
2014-Oct-30 04:32N 48°33' W 123°01'0 0.0
2014-Oct-30 03:32N 48°33' W 123°01'0 0.0
2014-Oct-30 02:32N 48°33' W 123°01'0 0.0
2014-Oct-30 01:29N 48°33' W 123°01'0 0.0
2014-Oct-30 00:29N 48°33' W 123°01'0 0.0
2014-Oct-29 23:32N 48°33' W 123°01'2 1.9
2014-Oct-29 22:29N 48°35' W 123°02'4 4.5
2014-Oct-29 21:33N 48°32' W 122°57'0 0.5
2014-Oct-29 20:33N 48°31' W 122°57'1 1.2
2014-Oct-29 19:33N 48°30' W 122°57'5 5.0
2014-Oct-29 18:33N 48°25' W 122°57'5 4.5
2014-Oct-29 17:32N 48°30' W 122°57'7 6.9
2014-Oct-29 16:29N 48°36' W 123°03'3 3.5
2014-Oct-29 15:29N 48°33' W 123°01'0 0.1
2014-Oct-29 14:30N 48°33' W 123°01'0 0.0
2014-Oct-29 13:30N 48°33' W 123°01'0 0.0
2014-Oct-29 12:33N 48°33' W 123°01'0 0.0
2014-Oct-29 11:30N 48°33' W 123°01'0 0.0
2014-Oct-29 10:30N 48°33' W 123°01'0 0.0
2014-Oct-29 09:33N 48°33' W 123°01'0 0.0
2014-Oct-29 08:33N 48°33' W 123°01'0 0.0
2014-Oct-29 07:33N 48°33' W 123°01'0 0.0
2014-Oct-29 06:33N 48°33' W 123°01'0 0.0
2014-Oct-29 05:30N 48°33' W 123°01'0 0.0
2014-Oct-29 04:33N 48°33' W 123°01'0 0.0
2014-Oct-29 03:30N 48°33' W 123°01'0 0.0
2014-Oct-29 02:30N 48°33' W 123°01'0 0.0
2014-Oct-29 01:33N 48°33' W 123°01'0 0.0
2014-Oct-29 00:30N 48°33' W 123°01'0 0.0
2014-Oct-28 23:27N 48°33' W 123°01'0 0.0
2014-Oct-28 22:33N 48°33' W 123°01'0 0.0
2014-Oct-28 21:27N 48°33' W 123°01'0 0.0
2014-Oct-28 20:27N 48°33' W 123°01'0 0.0
2014-Oct-28 19:24N 48°33' W 123°01'0 0.0
2014-Oct-28 18:30N 48°33' W 123°01'0 0.0
2014-Oct-28 17:18N 48°33' W 123°01'0 0.0
2014-Oct-28 16:33N 48°33' W 123°01'0 0.0
2014-Oct-28 15:33N 48°33' W 123°01'0 0.0
2014-Oct-28 14:30N 48°33' W 123°01'0 0.0
2014-Oct-28 13:33N 48°33' W 123°01'0 0.0
2014-Oct-28 12:27N 48°33' W 123°01'0 0.0
2014-Oct-28 11:30N 48°33' W 123°01'0 0.0
2014-Oct-28 10:33N 48°33' W 123°01'0 0.0
2014-Oct-28 09:33N 48°33' W 123°01'0 0.0
2014-Oct-28 08:30N 48°33' W 123°01'0 0.0
2014-Oct-28 07:30N 48°33' W 123°01'0 0.0
2014-Oct-28 06:30N 48°33' W 123°01'0 0.0
2014-Oct-28 05:33N 48°33' W 123°01'0 0.0
2014-Oct-28 04:30N 48°33' W 123°01'0 0.0
2014-Oct-28 03:27N 48°33' W 123°01'0 0.0
2014-Oct-28 02:33N 48°33' W 123°01'0 0.0
2014-Oct-28 01:33N 48°33' W 123°01'0 0.0
2014-Oct-28 00:33N 48°33' W 123°01'0 0.0
2014-Oct-27 23:30N 48°33' W 123°01'0 0.0
2014-Oct-27 22:27N 48°33' W 123°01'0 0.0
2014-Oct-27 21:33N 48°33' W 123°01'0 0.0
2014-Oct-27 20:33N 48°33' W 123°01'0 0.0
2014-Oct-27 19:33N 48°33' W 123°01'0 0.0
2014-Oct-27 18:33N 48°33' W 123°01'0 0.0
2014-Oct-27 17:24N 48°33' W 123°01'0 0.0
2014-Oct-27 16:33N 48°33' W 123°01'0 0.0
2014-Oct-27 15:30N 48°33' W 123°01'0 0.0
2014-Oct-27 14:30N 48°33' W 123°01'0 0.0
2014-Oct-27 13:30N 48°33' W 123°01'0 0.0
2014-Oct-27 12:33N 48°33' W 123°01'0 0.0
2014-Oct-27 11:33N 48°33' W 123°01'0 0.0
2014-Oct-27 10:30N 48°33' W 123°01'0 0.0
2014-Oct-27 09:24N 48°33' W 123°01'0 0.0
2014-Oct-27 08:33N 48°33' W 123°01'0 0.0
2014-Oct-27 07:33N 48°33' W 123°01'0 0.0
2014-Oct-27 06:33N 48°33' W 123°01'0 0.0
2014-Oct-27 05:33N 48°33' W 123°01'0 0.0
2014-Oct-27 04:33N 48°33' W 123°01'0 0.0
2014-Oct-27 03:30N 48°33' W 123°01'0 0.0
2014-Oct-27 02:33N 48°33' W 123°01'0 0.0
2014-Oct-27 01:24N 48°33' W 123°01'0 0.0
2014-Oct-27 00:30N 48°33' W 123°01'0 0.0
2014-Oct-26 23:24N 48°33' W 123°01'0 0.0
2014-Oct-26 22:24N 48°33' W 123°01'0 0.0
2014-Oct-26 21:30N 48°33' W 123°01'0 0.0
2014-Oct-26 20:30N 48°33' W 123°01'0 0.0
2014-Oct-26 19:18N 48°33' W 123°01'0 0.0
2014-Oct-26 18:21N 48°33' W 123°01'0 0.0
2014-Oct-26 17:33N 48°33' W 123°01'0 0.0
2014-Oct-26 16:24N 48°33' W 123°01'0 0.0
2014-Oct-26 15:30N 48°33' W 123°01'0 0.0
2014-Oct-26 14:30N 48°33' W 123°01'0 0.0
2014-Oct-26 13:30N 48°33' W 123°01'0 0.0
2014-Oct-26 12:30N 48°33' W 123°01'0 0.0
2014-Oct-26 11:30N 48°33' W 123°01'0 0.0
2014-Oct-26 10:30N 48°33' W 123°01'0 0.0
2014-Oct-26 09:33N 48°33' W 123°01'0 0.0
2014-Oct-26 08:33N 48°33' W 123°01'0 0.0
2014-Oct-26 07:30N 48°33' W 123°01'0 0.0
2014-Oct-26 06:30N 48°33' W 123°01'0 0.0
2014-Oct-26 05:30N 48°33' W 123°01'0 0.0
2014-Oct-26 04:33N 48°33' W 123°01'0 0.0
2014-Oct-26 03:30N 48°33' W 123°01'0 0.0
2014-Oct-26 02:21N 48°33' W 123°01'0 0.0
2014-Oct-26 01:30N 48°33' W 123°01'0 0.0
2014-Oct-26 00:33N 48°33' W 123°01'0 0.0
2014-Oct-25 22:22N 48°33' W 123°01'0 0.0
2014-Oct-25 20:33N 48°33' W 123°01'0 0.1
2014-Oct-25 19:33N 48°33' W 123°01'0 0.0
2014-Oct-25 18:30N 48°33' W 123°01'0 0.0
2014-Oct-25 17:30N 48°33' W 123°01'0 0.0
2014-Oct-25 16:24N 48°33' W 123°01'0 0.0
2014-Oct-25 15:24N 48°33' W 123°01'0 0.0
2014-Oct-25 14:33N 48°33' W 123°01'0 0.0
2014-Oct-25 13:30N 48°33' W 123°01'0 0.0
2014-Oct-25 12:33N 48°33' W 123°01'0 0.0
2014-Oct-25 11:30N 48°33' W 123°01'0 0.0
2014-Oct-25 10:33N 48°33' W 123°01'0 0.0
2014-Oct-25 09:30N 48°33' W 123°01'0 0.0
2014-Oct-25 08:30N 48°33' W 123°01'0 0.0
2014-Oct-25 07:30N 48°33' W 123°01'0 0.0
2014-Oct-25 06:30N 48°33' W 123°01'0 0.0
2014-Oct-25 05:33N 48°33' W 123°01'0 0.0
2014-Oct-25 04:33N 48°33' W 123°01'0 0.0
2014-Oct-25 03:33N 48°33' W 123°01'0 0.0
2014-Oct-25 02:33N 48°33' W 123°01'0 0.0
2014-Oct-25 01:33N 48°33' W 123°01'0 0.0
2014-Oct-25 00:33N 48°33' W 123°01'0 0.0
2014-Oct-24 23:33N 48°33' W 123°01'0 0.0
2014-Oct-24 22:30N 48°33' W 123°01'0 0.0
2014-Oct-24 21:30N 48°33' W 123°01'0 0.0
2014-Oct-24 20:30N 48°33' W 123°01'0 0.0
2014-Oct-24 19:33N 48°33' W 123°01'0 0.0
2014-Oct-24 18:33N 48°33' W 123°01'0 0.0
2014-Oct-24 17:33N 48°33' W 123°01'0 0.0
2014-Oct-24 16:24N 48°33' W 123°01'0 0.0
2014-Oct-24 15:33N 48°33' W 123°01'0 0.0
2014-Oct-24 14:30N 48°33' W 123°01'0 0.0
2014-Oct-24 13:33N 48°33' W 123°01'0 0.0
2014-Oct-24 12:30N 48°33' W 123°01'0 0.0
2014-Oct-24 11:33N 48°33' W 123°01'0 0.0
2014-Oct-24 10:30N 48°33' W 123°01'0 0.0
2014-Oct-24 09:30N 48°33' W 123°01'0 0.0
2014-Oct-24 08:33N 48°33' W 123°01'0 0.0
2014-Oct-24 07:33N 48°33' W 123°01'0 0.0
2014-Oct-24 06:33N 48°33' W 123°01'0 0.0
2014-Oct-24 05:30N 48°33' W 123°01'0 0.0
2014-Oct-24 04:30N 48°33' W 123°01'0 0.0
2014-Oct-24 03:24N 48°33' W 123°01'0 0.0
2014-Oct-24 02:30N 48°33' W 123°01'0 0.0
2014-Oct-24 01:30N 48°33' W 123°01'0 0.0
2014-Oct-24 00:30N 48°33' W 123°01'0 0.0
2014-Oct-23 23:33N 48°33' W 123°01'0 0.0
2014-Oct-23 22:33N 48°33' W 123°01'0 0.0
2014-Oct-23 21:33N 48°33' W 123°01'0 0.0
2014-Oct-23 20:27N 48°33' W 123°01'0 0.0
2014-Oct-23 19:33N 48°33' W 123°01'0 0.0
2014-Oct-23 18:33N 48°33' W 123°01'0 0.0
2014-Oct-23 17:30N 48°33' W 123°01'0 0.0
2014-Oct-23 16:30N 48°33' W 123°01'0 0.0
2014-Oct-22 09:33N 48°33' W 123°01'0 0.0
2014-Oct-22 08:33N 48°33' W 123°01'0 0.0
2014-Oct-22 07:27N 48°33' W 123°01'0 0.0
2014-Oct-22 06:33N 48°33' W 123°01'0 0.0
2014-Oct-22 05:33N 48°33' W 123°01'0 0.0
2014-Oct-22 04:27N 48°33' W 123°01'0 0.0
2014-Oct-22 03:33N 48°33' W 123°01'0 0.0
2014-Oct-22 02:33N 48°33' W 123°01'0 0.0
2014-Oct-22 01:30N 48°33' W 123°01'0 0.0
2014-Oct-22 00:33N 48°33' W 123°01'0 0.0
2014-Oct-21 23:33N 48°33' W 123°01'0 0.1
2014-Oct-21 22:33N 48°33' W 123°01'2 1.5
2014-Oct-21 21:12N 48°35' W 123°02'3 4.9
2014-Oct-21 20:33N 48°32' W 122°58'1 1.3
2014-Oct-21 19:33N 48°31' W 122°57'1 1.3
2014-Oct-21 18:33N 48°30' W 122°57'5 4.3
2014-Oct-21 17:26N 48°25' W 122°57'1 1.3
2014-Oct-21 16:30N 48°26' W 122°57'7 7.0
2014-Oct-21 15:31N 48°33' W 123°01'0 0.0
2014-Oct-21 14:31N 48°33' W 123°01'0 0.0
2014-Oct-21 13:28N 48°33' W 123°01'0 0.0
2014-Oct-21 12:31N 48°33' W 123°01'0 0.0
2014-Oct-21 11:31N 48°33' W 123°01'0 0.0
2014-Oct-21 10:31N 48°33' W 123°01'0 0.0
2014-Oct-21 09:31N 48°33' W 123°01'0 0.0
2014-Oct-21 08:28N 48°33' W 123°01'0 0.0
2014-Oct-21 07:28N 48°33' W 123°01'0 0.0
2014-Oct-21 06:31N 48°33' W 123°01'0 0.0
2014-Oct-21 05:31N 48°33' W 123°01'0 0.0
2014-Oct-21 04:31N 48°33' W 123°01'0 0.0
2014-Oct-21 03:28N 48°33' W 123°01'0 0.0
2014-Oct-21 02:28N 48°33' W 123°01'0 0.0
2014-Oct-21 01:31N 48°33' W 123°01'0 0.0
2014-Oct-21 00:31N 48°33' W 123°01'0 0.0
2014-Oct-20 23:28N 48°33' W 123°01'0 0.0
2014-Oct-20 22:31N 48°33' W 123°01'0 0.0
2014-Oct-20 21:31N 48°33' W 123°01'0 0.0
2014-Oct-20 20:31N 48°33' W 123°01'0 0.0
2014-Oct-20 19:31N 48°33' W 123°01'0 0.0
2014-Oct-20 18:31N 48°33' W 123°01'0 0.0
2014-Oct-20 17:31N 48°33' W 123°01'0 0.0
2014-Oct-20 16:28N 48°33' W 123°01'0 0.0
2014-Oct-20 15:28N 48°33' W 123°01'  
Track history (hours):
 
Tides and Currents Weather Stations Pressure Air Temp Water Temp Dewpoint Dewpoint Depression Visibility Wind Speed Wind Dir Waves Ship Positions

Centennial

Owner: University of Washington, Friday Harbor Labs, Friday Harbor, WA. More information available from US FCC via Universal Licensing System and Coast Guard Vessel Documentation Center.

Last reported at 2014-Oct-30 14:32 UTC. Time now 2014-Oct-30 14:37 UTC.
Position N 48°33' W 123°01'.

Length 20 m.

Type: Dredging. MMSI: 369277000.

Date/timePositionNaut miles runAvg speedWind from/ knotsBaromVisibWave heightAir tempDewpointWater temp
2014-Oct-30 14:32N 48°33' W 123°01'0 0.0
2014-Oct-30 13:32N 48°33' W 123°01'0 0.0
2014-Oct-30 12:32N 48°33' W 123°01'0 0.0
2014-Oct-30 11:32N 48°33' W 123°01'0 0.0
2014-Oct-30 10:29N 48°33' W 123°01'0 0.0
2014-Oct-30 09:23N 48°33' W 123°01'0 0.0
2014-Oct-30 08:32N 48°33' W 123°01'0 0.0
2014-Oct-30 07:32N 48°33' W 123°01'0 0.0
2014-Oct-30 06:29N 48°33' W 123°01'0 0.0
2014-Oct-30 05:29N 48°33' W 123°01'0 0.0
2014-Oct-30 04:32N 48°33' W 123°01'0 0.0
2014-Oct-30 03:32N 48°33' W 123°01'0 0.0
2014-Oct-30 02:32N 48°33' W 123°01'0 0.0
2014-Oct-30 01:29N 48°33' W 123°01'0 0.0
2014-Oct-30 00:29N 48°33' W 123°01'0 0.0
2014-Oct-29 23:32N 48°33' W 123°01'2 1.9
2014-Oct-29 22:29N 48°35' W 123°02'4 4.5
2014-Oct-29 21:33N 48°32' W 122°57'0 0.5
2014-Oct-29 20:33N 48°31' W 122°57'1 1.2
2014-Oct-29 19:33N 48°30' W 122°57'5 5.0
2014-Oct-29 18:33N 48°25' W 122°57'5 4.5
2014-Oct-29 17:32N 48°30' W 122°57'7 6.9
2014-Oct-29 16:29N 48°36' W 123°03'3 3.5
2014-Oct-29 15:29N 48°33' W 123°01'0 0.1
2014-Oct-29 14:30N 48°33' W 123°01'0 0.0
2014-Oct-29 13:30N 48°33' W 123°01'0 0.0
2014-Oct-29 12:33N 48°33' W 123°01'0 0.0
2014-Oct-29 11:30N 48°33' W 123°01'0 0.0
2014-Oct-29 10:30N 48°33' W 123°01'0 0.0
2014-Oct-29 09:33N 48°33' W 123°01'0 0.0
2014-Oct-29 08:33N 48°33' W 123°01'0 0.0
2014-Oct-29 07:33N 48°33' W 123°01'0 0.0
2014-Oct-29 06:33N 48°33' W 123°01'0 0.0
2014-Oct-29 05:30N 48°33' W 123°01'0 0.0
2014-Oct-29 04:33N 48°33' W 123°01'0 0.0
2014-Oct-29 03:30N 48°33' W 123°01'0 0.0
2014-Oct-29 02:30N 48°33' W 123°01'0 0.0
2014-Oct-29 01:33N 48°33' W 123°01'0 0.0
2014-Oct-29 00:30N 48°33' W 123°01'0 0.0
2014-Oct-28 23:27N 48°33' W 123°01'0 0.0
2014-Oct-28 22:33N 48°33' W 123°01'0 0.0
2014-Oct-28 21:27N 48°33' W 123°01'0 0.0
2014-Oct-28 20:27N 48°33' W 123°01'0 0.0
2014-Oct-28 19:24N 48°33' W 123°01'0 0.0
2014-Oct-28 18:30N 48°33' W 123°01'0 0.0
2014-Oct-28 17:18N 48°33' W 123°01'0 0.0
2014-Oct-28 16:33N 48°33' W 123°01'0 0.0
2014-Oct-28 15:33N 48°33' W 123°01'0 0.0
2014-Oct-28 14:30N 48°33' W 123°01'0 0.0
2014-Oct-28 13:33N 48°33' W 123°01'0 0.0
2014-Oct-28 12:27N 48°33' W 123°01'0 0.0
2014-Oct-28 11:30N 48°33' W 123°01'0 0.0
2014-Oct-28 10:33N 48°33' W 123°01'0 0.0
2014-Oct-28 09:33N 48°33' W 123°01'0 0.0
2014-Oct-28 08:30N 48°33' W 123°01'0 0.0
2014-Oct-28 07:30N 48°33' W 123°01'0 0.0
2014-Oct-28 06:30N 48°33' W 123°01'0 0.0
2014-Oct-28 05:33N 48°33' W 123°01'0 0.0
2014-Oct-28 04:30N 48°33' W 123°01'0 0.0
2014-Oct-28 03:27N 48°33' W 123°01'0 0.0
2014-Oct-28 02:33N 48°33' W 123°01'0 0.0
2014-Oct-28 01:33N 48°33' W 123°01'0 0.0
2014-Oct-28 00:33N 48°33' W 123°01'0 0.0
2014-Oct-27 23:30N 48°33' W 123°01'0 0.0
2014-Oct-27 22:27N 48°33' W 123°01'0 0.0
2014-Oct-27 21:33N 48°33' W 123°01'0 0.0
2014-Oct-27 20:33N 48°33' W 123°01'0 0.0
2014-Oct-27 19:33N 48°33' W 123°01'0 0.0
2014-Oct-27 18:33N 48°33' W 123°01'0 0.0
2014-Oct-27 17:24N 48°33' W 123°01'0 0.0
2014-Oct-27 16:33N 48°33' W 123°01'0 0.0
2014-Oct-27 15:30N 48°33' W 123°01'0 0.0
2014-Oct-27 14:30N 48°33' W 123°01'0 0.0
2014-Oct-27 13:30N 48°33' W 123°01'0 0.0
2014-Oct-27 12:33N 48°33' W 123°01'0 0.0
2014-Oct-27 11:33N 48°33' W 123°01'0 0.0
2014-Oct-27 10:30N 48°33' W 123°01'0 0.0
2014-Oct-27 09:24N 48°33' W 123°01'0 0.0
2014-Oct-27 08:33N 48°33' W 123°01'0 0.0
2014-Oct-27 07:33N 48°33' W 123°01'0 0.0
2014-Oct-27 06:33N 48°33' W 123°01'0 0.0
2014-Oct-27 05:33N 48°33' W 123°01'0 0.0
2014-Oct-27 04:33N 48°33' W 123°01'0 0.0
2014-Oct-27 03:30N 48°33' W 123°01'0 0.0
2014-Oct-27 02:33N 48°33' W 123°01'0 0.0
2014-Oct-27 01:24N 48°33' W 123°01'0 0.0
2014-Oct-27 00:30N 48°33' W 123°01'0 0.0
2014-Oct-26 23:24N 48°33' W 123°01'0 0.0
2014-Oct-26 22:24N 48°33' W 123°01'0 0.0
2014-Oct-26 21:30N 48°33' W 123°01'0 0.0
2014-Oct-26 20:30N 48°33' W 123°01'0 0.0
2014-Oct-26 19:18N 48°33' W 123°01'0 0.0
2014-Oct-26 18:21N 48°33' W 123°01'0 0.0
2014-Oct-26 17:33N 48°33' W 123°01'0 0.0
2014-Oct-26 16:24N 48°33' W 123°01'0 0.0
2014-Oct-26 15:30N 48°33' W 123°01'0 0.0
2014-Oct-26 14:30N 48°33' W 123°01'0 0.0
2014-Oct-26 13:30N 48°33' W 123°01'0 0.0
2014-Oct-26 12:30N 48°33' W 123°01'0 0.0
2014-Oct-26 11:30N 48°33' W 123°01'0 0.0
2014-Oct-26 10:30N 48°33' W 123°01'0 0.0
2014-Oct-26 09:33N 48°33' W 123°01'0 0.0
2014-Oct-26 08:33N 48°33' W 123°01'0 0.0
2014-Oct-26 07:30N 48°33' W 123°01'0 0.0
2014-Oct-26 06:30N 48°33' W 123°01'0 0.0
2014-Oct-26 05:30N 48°33' W 123°01'0 0.0
2014-Oct-26 04:33N 48°33' W 123°01'0 0.0
2014-Oct-26 03:30N 48°33' W 123°01'0 0.0
2014-Oct-26 02:21N 48°33' W 123°01'0 0.0
2014-Oct-26 01:30N 48°33' W 123°01'0 0.0
2014-Oct-26 00:33N 48°33' W 123°01'0 0.0
2014-Oct-25 22:22N 48°33' W 123°01'0 0.0
2014-Oct-25 20:33N 48°33' W 123°01'0 0.1
2014-Oct-25 19:33N 48°33' W 123°01'0 0.0
2014-Oct-25 18:30N 48°33' W 123°01'0 0.0
2014-Oct-25 17:30N 48°33' W 123°01'0 0.0
2014-Oct-25 16:24N 48°33' W 123°01'0 0.0
2014-Oct-25 15:24N 48°33' W 123°01'0 0.0
2014-Oct-25 14:33N 48°33' W 123°01'0 0.0
2014-Oct-25 13:30N 48°33' W 123°01'0 0.0
2014-Oct-25 12:33N 48°33' W 123°01'0 0.0
2014-Oct-25 11:30N 48°33' W 123°01'0 0.0
2014-Oct-25 10:33N 48°33' W 123°01'0 0.0
2014-Oct-25 09:30N 48°33' W 123°01'0 0.0
2014-Oct-25 08:30N 48°33' W 123°01'0 0.0
2014-Oct-25 07:30N 48°33' W 123°01'0 0.0
2014-Oct-25 06:30N 48°33' W 123°01'0 0.0
2014-Oct-25 05:33N 48°33' W 123°01'0 0.0
2014-Oct-25 04:33N 48°33' W 123°01'0 0.0
2014-Oct-25 03:33N 48°33' W 123°01'0 0.0
2014-Oct-25 02:33N 48°33' W 123°01'0 0.0
2014-Oct-25 01:33N 48°33' W 123°01'0 0.0
2014-Oct-25 00:33N 48°33' W 123°01'0 0.0
2014-Oct-24 23:33N 48°33' W 123°01'0 0.0
2014-Oct-24 22:30N 48°33' W 123°01'0 0.0
2014-Oct-24 21:30N 48°33' W 123°01'0 0.0
2014-Oct-24 20:30N 48°33' W 123°01'0 0.0
2014-Oct-24 19:33N 48°33' W 123°01'0 0.0
2014-Oct-24 18:33N 48°33' W 123°01'0 0.0
2014-Oct-24 17:33N 48°33' W 123°01'0 0.0
2014-Oct-24 16:24N 48°33' W 123°01'0 0.0
2014-Oct-24 15:33N 48°33' W 123°01'0 0.0
2014-Oct-24 14:30N 48°33' W 123°01'0 0.0
2014-Oct-24 13:33N 48°33' W 123°01'0 0.0
2014-Oct-24 12:30N 48°33' W 123°01'0 0.0
2014-Oct-24 11:33N 48°33' W 123°01'0 0.0
2014-Oct-24 10:30N 48°33' W 123°01'0 0.0
2014-Oct-24 09:30N 48°33' W 123°01'0 0.0
2014-Oct-24 08:33N 48°33' W 123°01'0 0.0
2014-Oct-24 07:33N 48°33' W 123°01'0 0.0
2014-Oct-24 06:33N 48°33' W 123°01'0 0.0
2014-Oct-24 05:30N 48°33' W 123°01'0 0.0
2014-Oct-24 04:30N 48°33' W 123°01'0 0.0
2014-Oct-24 03:24N 48°33' W 123°01'0 0.0
2014-Oct-24 02:30N 48°33' W 123°01'0 0.0
2014-Oct-24 01:30N 48°33' W 123°01'0 0.0
2014-Oct-24 00:30N 48°33' W 123°01'0 0.0
2014-Oct-23 23:33N 48°33' W 123°01'0 0.0
2014-Oct-23 22:33N 48°33' W 123°01'0 0.0
2014-Oct-23 21:33N 48°33' W 123°01'0 0.0
2014-Oct-23 20:27N 48°33' W 123°01'0 0.0
2014-Oct-23 19:33N 48°33' W 123°01'0 0.0
2014-Oct-23 18:33N 48°33' W 123°01'0 0.0
2014-Oct-23 17:30N 48°33' W 123°01'0 0.0
2014-Oct-23 16:30N 48°33' W 123°01'0 0.0
2014-Oct-22 09:33N 48°33' W 123°01'0 0.0
2014-Oct-22 08:33N 48°33' W 123°01'0 0.0
2014-Oct-22 07:27N 48°33' W 123°01'0 0.0
2014-Oct-22 06:33N 48°33' W 123°01'0 0.0
2014-Oct-22 05:33N 48°33' W 123°01'0 0.0
2014-Oct-22 04:27N 48°33' W 123°01'0 0.0
2014-Oct-22 03:33N 48°33' W 123°01'0 0.0
2014-Oct-22 02:33N 48°33' W 123°01'0 0.0
2014-Oct-22 01:30N 48°33' W 123°01'0 0.0
2014-Oct-22 00:33N 48°33' W 123°01'0 0.0
2014-Oct-21 23:33N 48°33' W 123°01'0 0.1
2014-Oct-21 22:33N 48°33' W 123°01'2 1.5
2014-Oct-21 21:12N 48°35' W 123°02'3 4.9
2014-Oct-21 20:33N 48°32' W 122°58'1 1.3
2014-Oct-21 19:33N 48°31' W 122°57'1 1.3
2014-Oct-21 18:33N 48°30' W 122°57'5 4.3
2014-Oct-21 17:26N 48°25' W 122°57'1 1.3
2014-Oct-21 16:30N 48°26' W 122°57'7 7.0
2014-Oct-21 15:31N 48°33' W 123°01'0 0.0
2014-Oct-21 14:31N 48°33' W 123°01'0 0.0
2014-Oct-21 13:28N 48°33' W 123°01'0 0.0
2014-Oct-21 12:31N 48°33' W 123°01'0 0.0
2014-Oct-21 11:31N 48°33' W 123°01'0 0.0
2014-Oct-21 10:31N 48°33' W 123°01'0 0.0
2014-Oct-21 09:31N 48°33' W 123°01'0 0.0
2014-Oct-21 08:28N 48°33' W 123°01'0 0.0
2014-Oct-21 07:28N 48°33' W 123°01'0 0.0
2014-Oct-21 06:31N 48°33' W 123°01'0 0.0
2014-Oct-21 05:31N 48°33' W 123°01'0 0.0
2014-Oct-21 04:31N 48°33' W 123°01'0 0.0
2014-Oct-21 03:28N 48°33' W 123°01'0 0.0
2014-Oct-21 02:28N 48°33' W 123°01'0 0.0
2014-Oct-21 01:31N 48°33' W 123°01'0 0.0
2014-Oct-21 00:31N 48°33' W 123°01'0 0.0
2014-Oct-20 23:28N 48°33' W 123°01'0 0.0
2014-Oct-20 22:31N 48°33' W 123°01'0 0.0
2014-Oct-20 21:31N 48°33' W 123°01'0 0.0
2014-Oct-20 20:31N 48°33' W 123°01'0 0.0
2014-Oct-20 19:31N 48°33' W 123°01'0 0.0
2014-Oct-20 18:31N 48°33' W 123°01'0 0.0
2014-Oct-20 17:31N 48°33' W 123°01'0 0.0
2014-Oct-20 16:28N 48°33' W 123°01'0 0.0
2014-Oct-20 15:28N 48°33' W 123°01'  

Dump ship's entire track history